sensor_id;sensor_type;location;lat;lon;timestamp;P1;durP1;ratioP1;P2;durP2;ratioP2
44516;SDS011;30223;17.182;-96.766;2023-08-12T00:01:15;3.88;;;2.50;;
44516;SDS011;30223;17.182;-96.766;2023-08-12T00:03:42;4.50;;;3.13;;
44516;SDS011;30223;17.182;-96.766;2023-08-12T00:06:09;3.50;;;2.80;;
44516;SDS011;30223;17.182;-96.766;2023-08-12T00:08:35;3.90;;;3.03;;
44516;SDS011;30223;17.182;-96.766;2023-08-12T00:11:02;6.15;;;3.92;;
44516;SDS011;30223;17.182;-96.766;2023-08-12T00:13:29;7.32;;;3.30;;
44516;SDS011;30223;17.182;-96.766;2023-08-12T00:15:56;22.80;;;5.60;;
44516;SDS011;30223;17.182;-96.766;2023-08-12T00:18:23;8.18;;;3.83;;
44516;SDS011;30223;17.182;-96.766;2023-08-12T00:20:49;5.72;;;3.70;;
44516;SDS011;30223;17.182;-96.766;2023-08-12T00:23:16;6.28;;;3.42;;
44516;SDS011;30223;17.182;-96.766;2023-08-12T00:25:43;6.13;;;2.95;;
44516;SDS011;30223;17.182;-96.766;2023-08-12T00:28:10;6.35;;;3.42;;
44516;SDS011;30223;17.182;-96.766;2023-08-12T00:30:38;6.60;;;3.70;;
44516;SDS011;30223;17.182;-96.766;2023-08-12T00:33:04;8.77;;;4.35;;
44516;SDS011;30223;17.182;-96.766;2023-08-12T00:35:31;4.53;;;3.30;;
44516;SDS011;30223;17.182;-96.766;2023-08-12T00:37:58;6.93;;;4.45;;
44516;SDS011;30223;17.182;-96.766;2023-08-12T00:40:26;7.25;;;3.50;;
44516;SDS011;30223;17.182;-96.766;2023-08-12T00:42:52;5.13;;;3.17;;
44516;SDS011;30223;17.182;-96.766;2023-08-12T00:45:19;6.95;;;4.30;;
44516;SDS011;30223;17.182;-96.766;2023-08-12T00:47:46;9.15;;;3.30;;
44516;SDS011;30223;17.182;-96.766;2023-08-12T00:50:13;6.93;;;4.20;;
44516;SDS011;30223;17.182;-96.766;2023-08-12T00:52:41;4.50;;;3.92;;
44516;SDS011;30223;17.182;-96.766;2023-08-12T00:55:08;6.25;;;3.78;;
44516;SDS011;30223;17.182;-96.766;2023-08-12T00:57:36;7.72;;;4.78;;
44516;SDS011;30223;17.182;-96.766;2023-08-12T01:00:03;8.48;;;4.25;;
44516;SDS011;30223;17.182;-96.766;2023-08-12T01:02:30;9.07;;;4.28;;
44516;SDS011;30223;17.182;-96.766;2023-08-12T01:04:58;11.35;;;4.65;;
44516;SDS011;30223;17.182;-96.766;2023-08-12T01:07:25;8.48;;;4.05;;
44516;SDS011;30223;17.182;-96.766;2023-08-12T01:09:52;6.40;;;3.53;;
44516;SDS011;30223;17.182;-96.766;2023-08-12T01:12:24;8.40;;;4.35;;
44516;SDS011;30223;17.182;-96.766;2023-08-12T01:15:11;6.25;;;4.28;;
44516;SDS011;30223;17.182;-96.766;2023-08-12T01:17:43;7.97;;;4.32;;
44516;SDS011;30223;17.182;-96.766;2023-08-12T01:20:11;8.38;;;4.22;;
44516;SDS011;30223;17.182;-96.766;2023-08-12T01:22:38;8.43;;;3.72;;
44516;SDS011;30223;17.182;-96.766;2023-08-12T01:25:09;10.32;;;3.88;;
44516;SDS011;30223;17.182;-96.766;2023-08-12T01:27:36;7.65;;;4.00;;
44516;SDS011;30223;17.182;-96.766;2023-08-12T01:30:03;6.53;;;4.32;;
44516;SDS011;30223;17.182;-96.766;2023-08-12T01:35:29;6.25;;;3.95;;
44516;SDS011;30223;17.182;-96.766;2023-08-12T01:38:01;7.93;;;4.65;;
44516;SDS011;30223;17.182;-96.766;2023-08-12T01:40:30;8.85;;;4.70;;
44516;SDS011;30223;17.182;-96.766;2023-08-12T01:42:58;7.70;;;4.83;;
44516;SDS011;30223;17.182;-96.766;2023-08-12T01:45:26;4.97;;;3.40;;
44516;SDS011;30223;17.182;-96.766;2023-08-12T01:47:52;6.70;;;3.92;;
44516;SDS011;30223;17.182;-96.766;2023-08-12T01:50:19;5.72;;;3.53;;
44516;SDS011;30223;17.182;-96.766;2023-08-12T01:52:47;6.45;;;4.97;;
44516;SDS011;30223;17.182;-96.766;2023-08-12T01:55:13;7.13;;;4.47;;
44516;SDS011;30223;17.182;-96.766;2023-08-12T01:57:40;6.53;;;4.07;;
44516;SDS011;30223;17.182;-96.766;2023-08-12T02:00:07;6.47;;;4.32;;
44516;SDS011;30223;17.182;-96.766;2023-08-12T02:02:34;4.80;;;4.03;;
44516;SDS011;30223;17.182;-96.766;2023-08-12T02:05:01;8.18;;;4.57;;
44516;SDS011;30223;17.182;-96.766;2023-08-12T02:07:28;8.32;;;4.63;;
44516;SDS011;30223;17.182;-96.766;2023-08-12T02:09:55;9.40;;;5.15;;
44516;SDS011;30223;17.182;-96.766;2023-08-12T02:12:22;7.70;;;4.65;;
44516;SDS011;30223;17.182;-96.766;2023-08-12T02:14:49;6.60;;;4.95;;
44516;SDS011;30223;17.182;-96.766;2023-08-12T02:17:16;6.47;;;4.63;;
44516;SDS011;30223;17.182;-96.766;2023-08-12T02:19:42;10.88;;;5.90;;
44516;SDS011;30223;17.182;-96.766;2023-08-12T02:22:09;6.32;;;4.45;;
44516;SDS011;30223;17.182;-96.766;2023-08-12T02:24:36;7.38;;;4.35;;
44516;SDS011;30223;17.182;-96.766;2023-08-12T02:27:03;7.65;;;4.28;;
44516;SDS011;30223;17.182;-96.766;2023-08-12T02:29:29;8.38;;;4.55;;
44516;SDS011;30223;17.182;-96.766;2023-08-12T02:31:56;5.78;;;4.03;;
44516;SDS011;30223;17.182;-96.766;2023-08-12T02:34:23;4.47;;;3.22;;
44516;SDS011;30223;17.182;-96.766;2023-08-12T02:36:50;4.88;;;3.40;;
44516;SDS011;30223;17.182;-96.766;2023-08-12T02:39:16;4.22;;;3.42;;
44516;SDS011;30223;17.182;-96.766;2023-08-12T02:41:43;7.70;;;3.85;;
44516;SDS011;30223;17.182;-96.766;2023-08-12T02:44:10;7.40;;;3.72;;
44516;SDS011;30223;17.182;-96.766;2023-08-12T02:46:37;8.55;;;4.60;;
44516;SDS011;30223;17.182;-96.766;2023-08-12T02:49:03;4.40;;;3.55;;
44516;SDS011;30223;17.182;-96.766;2023-08-12T02:51:30;7.10;;;3.75;;
44516;SDS011;30223;17.182;-96.766;2023-08-12T02:53:57;7.97;;;3.78;;
44516;SDS011;30223;17.182;-96.766;2023-08-12T02:56:24;3.70;;;3.30;;
44516;SDS011;30223;17.182;-96.766;2023-08-12T02:58:51;7.82;;;3.92;;
44516;SDS011;30223;17.182;-96.766;2023-08-12T03:01:18;5.45;;;3.35;;
44516;SDS011;30223;17.182;-96.766;2023-08-12T03:03:44;7.43;;;3.83;;
44516;SDS011;30223;17.182;-96.766;2023-08-12T03:06:11;12.48;;;5.78;;
44516;SDS011;30223;17.182;-96.766;2023-08-12T03:08:38;12.65;;;7.18;;
44516;SDS011;30223;17.182;-96.766;2023-08-12T03:11:05;13.25;;;6.57;;
44516;SDS011;30223;17.182;-96.766;2023-08-12T03:13:32;12.77;;;7.15;;
44516;SDS011;30223;17.182;-96.766;2023-08-12T03:15:58;13.35;;;6.93;;
44516;SDS011;30223;17.182;-96.766;2023-08-12T03:18:25;12.68;;;6.25;;
44516;SDS011;30223;17.182;-96.766;2023-08-12T03:20:52;10.13;;;5.55;;
44516;SDS011;30223;17.182;-96.766;2023-08-12T03:23:19;10.07;;;6.50;;
44516;SDS011;30223;17.182;-96.766;2023-08-12T03:25:48;11.65;;;5.82;;
44516;SDS011;30223;17.182;-96.766;2023-08-12T03:28:16;11.30;;;6.05;;
44516;SDS011;30223;17.182;-96.766;2023-08-12T03:30:49;10.40;;;5.43;;
44516;SDS011;30223;17.182;-96.766;2023-08-12T03:33:19;10.30;;;5.55;;
44516;SDS011;30223;17.182;-96.766;2023-08-12T03:35:47;10.93;;;5.78;;
44516;SDS011;30223;17.182;-96.766;2023-08-12T03:38:14;8.20;;;5.15;;
44516;SDS011;30223;17.182;-96.766;2023-08-12T03:40:42;8.48;;;5.43;;
44516;SDS011;30223;17.182;-96.766;2023-08-12T03:43:08;11.90;;;5.25;;
44516;SDS011;30223;17.182;-96.766;2023-08-12T03:45:53;8.80;;;5.05;;
44516;SDS011;30223;17.182;-96.766;2023-08-12T03:48:20;9.75;;;5.28;;
44516;SDS011;30223;17.182;-96.766;2023-08-12T03:50:47;12.85;;;5.40;;
44516;SDS011;30223;17.182;-96.766;2023-08-12T03:53:14;7.90;;;5.00;;
44516;SDS011;30223;17.182;-96.766;2023-08-12T03:55:45;8.05;;;5.80;;
44516;SDS011;30223;17.182;-96.766;2023-08-12T03:58:12;8.80;;;5.07;;
44516;SDS011;30223;17.182;-96.766;2023-08-12T04:00:41;5.30;;;3.97;;
44516;SDS011;30223;17.182;-96.766;2023-08-12T04:03:08;12.20;;;5.80;;
44516;SDS011;30223;17.182;-96.766;2023-08-12T04:05:35;10.20;;;4.97;;
44516;SDS011;30223;17.182;-96.766;2023-08-12T04:08:02;10.32;;;4.57;;
44516;SDS011;30223;17.182;-96.766;2023-08-12T04:10:30;6.22;;;4.30;;
44516;SDS011;30223;17.182;-96.766;2023-08-12T04:12:57;7.25;;;5.38;;
44516;SDS011;30223;17.182;-96.766;2023-08-12T04:15:24;6.35;;;5.40;;
44516;SDS011;30223;17.182;-96.766;2023-08-12T04:17:51;10.88;;;6.38;;
44516;SDS011;30223;17.182;-96.766;2023-08-12T04:20:17;6.70;;;4.75;;
44516;SDS011;30223;17.182;-96.766;2023-08-12T04:22:44;7.30;;;5.25;;
44516;SDS011;30223;17.182;-96.766;2023-08-12T04:25:11;7.40;;;5.50;;
44516;SDS011;30223;17.182;-96.766;2023-08-12T04:27:38;5.07;;;4.15;;
44516;SDS011;30223;17.182;-96.766;2023-08-12T04:30:05;7.00;;;4.95;;
44516;SDS011;30223;17.182;-96.766;2023-08-12T04:32:32;7.43;;;5.40;;
44516;SDS011;30223;17.182;-96.766;2023-08-12T04:34:59;8.75;;;6.05;;
44516;SDS011;30223;17.182;-96.766;2023-08-12T04:37:25;10.32;;;5.20;;
44516;SDS011;30223;17.182;-96.766;2023-08-12T04:39:54;6.70;;;5.70;;
44516;SDS011;30223;17.182;-96.766;2023-08-12T04:42:20;7.72;;;4.72;;
44516;SDS011;30223;17.182;-96.766;2023-08-12T04:44:47;6.97;;;4.80;;
44516;SDS011;30223;17.182;-96.766;2023-08-12T04:47:14;11.25;;;5.53;;
44516;SDS011;30223;17.182;-96.766;2023-08-12T04:49:41;7.55;;;4.80;;
44516;SDS011;30223;17.182;-96.766;2023-08-12T04:52:08;8.15;;;4.70;;
44516;SDS011;30223;17.182;-96.766;2023-08-12T04:54:35;6.82;;;4.43;;
44516;SDS011;30223;17.182;-96.766;2023-08-12T04:57:01;7.28;;;5.57;;
44516;SDS011;30223;17.182;-96.766;2023-08-12T04:59:28;5.07;;;4.10;;
44516;SDS011;30223;17.182;-96.766;2023-08-12T05:01:55;8.20;;;4.53;;
44516;SDS011;30223;17.182;-96.766;2023-08-12T05:04:22;6.90;;;5.53;;
44516;SDS011;30223;17.182;-96.766;2023-08-12T05:06:50;12.57;;;4.72;;
44516;SDS011;30223;17.182;-96.766;2023-08-12T05:09:17;9.20;;;3.67;;
44516;SDS011;30223;17.182;-96.766;2023-08-12T05:11:43;5.15;;;4.05;;
44516;SDS011;30223;17.182;-96.766;2023-08-12T05:14:10;8.20;;;4.72;;
44516;SDS011;30223;17.182;-96.766;2023-08-12T05:16:37;8.30;;;4.60;;
44516;SDS011;30223;17.182;-96.766;2023-08-12T05:19:04;8.50;;;5.15;;
44516;SDS011;30223;17.182;-96.766;2023-08-12T05:21:31;6.40;;;3.97;;
44516;SDS011;30223;17.182;-96.766;2023-08-12T05:23:57;7.72;;;4.07;;
44516;SDS011;30223;17.182;-96.766;2023-08-12T05:26:24;8.93;;;4.65;;
44516;SDS011;30223;17.182;-96.766;2023-08-12T05:28:51;9.80;;;4.70;;
44516;SDS011;30223;17.182;-96.766;2023-08-12T05:31:18;5.47;;;4.80;;
44516;SDS011;30223;17.182;-96.766;2023-08-12T05:33:44;7.72;;;6.03;;
44516;SDS011;30223;17.182;-96.766;2023-08-12T05:36:11;7.72;;;5.25;;
44516;SDS011;30223;17.182;-96.766;2023-08-12T05:38:38;6.88;;;4.82;;
44516;SDS011;30223;17.182;-96.766;2023-08-12T05:41:05;9.60;;;4.97;;
44516;SDS011;30223;17.182;-96.766;2023-08-12T05:43:32;6.72;;;5.30;;
44516;SDS011;30223;17.182;-96.766;2023-08-12T05:45:59;7.55;;;5.00;;
44516;SDS011;30223;17.182;-96.766;2023-08-12T05:48:26;7.00;;;3.97;;
44516;SDS011;30223;17.182;-96.766;2023-08-12T05:50:53;7.10;;;4.63;;
44516;SDS011;30223;17.182;-96.766;2023-08-12T05:53:21;8.35;;;4.57;;
44516;SDS011;30223;17.182;-96.766;2023-08-12T05:55:48;8.90;;;5.22;;
44516;SDS011;30223;17.182;-96.766;2023-08-12T05:58:15;8.38;;;5.43;;
44516;SDS011;30223;17.182;-96.766;2023-08-12T06:00:42;7.38;;;5.25;;
44516;SDS011;30223;17.182;-96.766;2023-08-12T06:03:12;7.55;;;4.28;;
44516;SDS011;30223;17.182;-96.766;2023-08-12T06:05:40;11.13;;;5.57;;
44516;SDS011;30223;17.182;-96.766;2023-08-12T06:08:08;5.43;;;4.80;;
44516;SDS011;30223;17.182;-96.766;2023-08-12T06:10:35;6.38;;;4.32;;
44516;SDS011;30223;17.182;-96.766;2023-08-12T06:13:02;6.68;;;4.13;;
44516;SDS011;30223;17.182;-96.766;2023-08-12T06:15:29;8.30;;;4.50;;
44516;SDS011;30223;17.182;-96.766;2023-08-12T06:17:56;7.32;;;4.32;;
44516;SDS011;30223;17.182;-96.766;2023-08-12T06:20:23;8.48;;;4.13;;
44516;SDS011;30223;17.182;-96.766;2023-08-12T06:22:50;4.72;;;4.10;;
44516;SDS011;30223;17.182;-96.766;2023-08-12T06:25:18;8.15;;;4.07;;
44516;SDS011;30223;17.182;-96.766;2023-08-12T06:27:45;7.60;;;4.78;;
44516;SDS011;30223;17.182;-96.766;2023-08-12T06:30:12;7.43;;;4.63;;
44516;SDS011;30223;17.182;-96.766;2023-08-12T06:32:40;8.13;;;5.05;;
44516;SDS011;30223;17.182;-96.766;2023-08-12T06:35:07;8.00;;;4.55;;
44516;SDS011;30223;17.182;-96.766;2023-08-12T06:37:34;5.85;;;4.72;;
44516;SDS011;30223;17.182;-96.766;2023-08-12T06:40:02;7.05;;;5.70;;
44516;SDS011;30223;17.182;-96.766;2023-08-12T06:42:29;7.40;;;4.55;;
44516;SDS011;30223;17.182;-96.766;2023-08-12T06:44:56;4.90;;;3.60;;
44516;SDS011;30223;17.182;-96.766;2023-08-12T06:47:24;4.87;;;3.50;;
44516;SDS011;30223;17.182;-96.766;2023-08-12T06:49:52;7.40;;;3.95;;
44516;SDS011;30223;17.182;-96.766;2023-08-12T06:52:19;7.95;;;4.43;;
44516;SDS011;30223;17.182;-96.766;2023-08-12T06:54:46;5.72;;;4.55;;
44516;SDS011;30223;17.182;-96.766;2023-08-12T06:57:13;6.53;;;4.32;;
44516;SDS011;30223;17.182;-96.766;2023-08-12T06:59:40;13.10;;;5.28;;
44516;SDS011;30223;17.182;-96.766;2023-08-12T07:02:06;5.88;;;4.00;;
44516;SDS011;30223;17.182;-96.766;2023-08-12T07:04:33;4.90;;;3.72;;
44516;SDS011;30223;17.182;-96.766;2023-08-12T07:07:00;7.68;;;4.45;;
44516;SDS011;30223;17.182;-96.766;2023-08-12T07:09:27;4.80;;;3.45;;
44516;SDS011;30223;17.182;-96.766;2023-08-12T07:11:53;5.22;;;3.53;;
44516;SDS011;30223;17.182;-96.766;2023-08-12T07:14:20;6.63;;;4.57;;
44516;SDS011;30223;17.182;-96.766;2023-08-12T07:16:47;5.60;;;3.80;;
44516;SDS011;30223;17.182;-96.766;2023-08-12T07:19:14;4.15;;;3.22;;
44516;SDS011;30223;17.182;-96.766;2023-08-12T07:21:41;5.90;;;4.20;;
44516;SDS011;30223;17.182;-96.766;2023-08-12T07:24:07;6.22;;;4.13;;
44516;SDS011;30223;17.182;-96.766;2023-08-12T07:26:34;3.95;;;3.15;;
44516;SDS011;30223;17.182;-96.766;2023-08-12T07:29:01;7.57;;;4.35;;
44516;SDS011;30223;17.182;-96.766;2023-08-12T07:31:28;7.30;;;3.97;;
44516;SDS011;30223;17.182;-96.766;2023-08-12T07:33:55;6.53;;;4.22;;
44516;SDS011;30223;17.182;-96.766;2023-08-12T07:36:22;5.35;;;3.33;;
44516;SDS011;30223;17.182;-96.766;2023-08-12T07:38:48;8.35;;;4.78;;
44516;SDS011;30223;17.182;-96.766;2023-08-12T07:41:15;5.45;;;3.53;;
44516;SDS011;30223;17.182;-96.766;2023-08-12T07:43:42;7.43;;;3.90;;
44516;SDS011;30223;17.182;-96.766;2023-08-12T07:46:09;3.88;;;3.15;;
44516;SDS011;30223;17.182;-96.766;2023-08-12T07:48:35;4.93;;;3.78;;
44516;SDS011;30223;17.182;-96.766;2023-08-12T07:51:03;7.03;;;4.10;;
44516;SDS011;30223;17.182;-96.766;2023-08-12T07:53:30;5.35;;;3.47;;
44516;SDS011;30223;17.182;-96.766;2023-08-12T07:55:57;4.93;;;3.95;;
44516;SDS011;30223;17.182;-96.766;2023-08-12T07:58:24;4.75;;;3.53;;
44516;SDS011;30223;17.182;-96.766;2023-08-12T08:00:53;5.93;;;4.00;;
44516;SDS011;30223;17.182;-96.766;2023-08-12T08:03:20;3.90;;;3.42;;
44516;SDS011;30223;17.182;-96.766;2023-08-12T08:05:47;4.55;;;3.72;;
44516;SDS011;30223;17.182;-96.766;2023-08-12T08:08:14;4.95;;;3.47;;
44516;SDS011;30223;17.182;-96.766;2023-08-12T08:10:41;6.95;;;3.55;;
44516;SDS011;30223;17.182;-96.766;2023-08-12T08:13:08;4.60;;;3.58;;
44516;SDS011;30223;17.182;-96.766;2023-08-12T08:15:34;4.53;;;3.35;;
44516;SDS011;30223;17.182;-96.766;2023-08-12T08:18:01;5.22;;;3.78;;
44516;SDS011;30223;17.182;-96.766;2023-08-12T08:20:29;3.92;;;3.03;;
44516;SDS011;30223;17.182;-96.766;2023-08-12T08:22:57;5.05;;;3.67;;
44516;SDS011;30223;17.182;-96.766;2023-08-12T08:25:23;6.97;;;3.90;;
44516;SDS011;30223;17.182;-96.766;2023-08-12T08:27:50;8.35;;;3.30;;
44516;SDS011;30223;17.182;-96.766;2023-08-12T08:30:18;4.25;;;3.08;;
44516;SDS011;30223;17.182;-96.766;2023-08-12T08:32:45;4.68;;;2.90;;
44516;SDS011;30223;17.182;-96.766;2023-08-12T08:35:12;4.72;;;3.90;;
44516;SDS011;30223;17.182;-96.766;2023-08-12T08:37:40;7.28;;;4.53;;
44516;SDS011;30223;17.182;-96.766;2023-08-12T08:40:07;10.02;;;3.50;;
44516;SDS011;30223;17.182;-96.766;2023-08-12T08:42:34;4.97;;;3.20;;
44516;SDS011;30223;17.182;-96.766;2023-08-12T08:45:02;4.60;;;3.03;;
44516;SDS011;30223;17.182;-96.766;2023-08-12T08:47:35;6.88;;;4.15;;
44516;SDS011;30223;17.182;-96.766;2023-08-12T08:50:02;5.68;;;3.95;;
44516;SDS011;30223;17.182;-96.766;2023-08-12T08:52:29;4.20;;;3.70;;
44516;SDS011;30223;17.182;-96.766;2023-08-12T08:54:57;5.07;;;3.40;;
44516;SDS011;30223;17.182;-96.766;2023-08-12T08:57:26;3.67;;;3.30;;
44516;SDS011;30223;17.182;-96.766;2023-08-12T08:59:54;4.75;;;4.03;;
44516;SDS011;30223;17.182;-96.766;2023-08-12T09:02:21;3.65;;;3.22;;
44516;SDS011;30223;17.182;-96.766;2023-08-12T09:04:48;4.22;;;2.83;;
44516;SDS011;30223;17.182;-96.766;2023-08-12T09:07:16;3.67;;;2.83;;
44516;SDS011;30223;17.182;-96.766;2023-08-12T09:09:46;5.95;;;3.63;;
44516;SDS011;30223;17.182;-96.766;2023-08-12T09:12:17;4.82;;;3.72;;
44516;SDS011;30223;17.182;-96.766;2023-08-12T09:14:46;5.63;;;3.47;;
44516;SDS011;30223;17.182;-96.766;2023-08-12T09:17:12;3.80;;;3.22;;
44516;SDS011;30223;17.182;-96.766;2023-08-12T09:19:40;4.63;;;3.55;;
44516;SDS011;30223;17.182;-96.766;2023-08-12T09:22:07;4.63;;;3.38;;
44516;SDS011;30223;17.182;-96.766;2023-08-12T09:24:34;5.28;;;3.97;;
44516;SDS011;30223;17.182;-96.766;2023-08-12T09:27:01;5.15;;;3.83;;
44516;SDS011;30223;17.182;-96.766;2023-08-12T09:29:32;5.15;;;3.30;;
44516;SDS011;30223;17.182;-96.766;2023-08-12T09:32:12;5.07;;;3.78;;
44516;SDS011;30223;17.182;-96.766;2023-08-12T09:34:53;3.53;;;3.10;;
44516;SDS011;30223;17.182;-96.766;2023-08-12T09:37:22;4.53;;;3.63;;
44516;SDS011;30223;17.182;-96.766;2023-08-12T09:39:52;7.93;;;3.35;;
44516;SDS011;30223;17.182;-96.766;2023-08-12T09:42:19;4.95;;;3.60;;
44516;SDS011;30223;17.182;-96.766;2023-08-12T09:44:46;4.43;;;3.15;;
44516;SDS011;30223;17.182;-96.766;2023-08-12T09:47:13;3.63;;;2.90;;
44516;SDS011;30223;17.182;-96.766;2023-08-12T09:49:40;3.33;;;3.03;;
44516;SDS011;30223;17.182;-96.766;2023-08-12T09:52:07;5.28;;;3.70;;
44516;SDS011;30223;17.182;-96.766;2023-08-12T09:54:34;3.38;;;3.03;;
44516;SDS011;30223;17.182;-96.766;2023-08-12T09:57:02;3.20;;;2.90;;
44516;SDS011;30223;17.182;-96.766;2023-08-12T09:59:32;7.88;;;3.58;;
44516;SDS011;30223;17.182;-96.766;2023-08-12T10:02:01;4.32;;;3.13;;
44516;SDS011;30223;17.182;-96.766;2023-08-12T10:04:35;3.97;;;3.25;;
44516;SDS011;30223;17.182;-96.766;2023-08-12T10:07:06;5.80;;;3.13;;
44516;SDS011;30223;17.182;-96.766;2023-08-12T10:12:03;6.03;;;3.45;;
44516;SDS011;30223;17.182;-96.766;2023-08-12T10:14:30;5.03;;;3.25;;
44516;SDS011;30223;17.182;-96.766;2023-08-12T10:16:58;4.80;;;3.28;;
44516;SDS011;30223;17.182;-96.766;2023-08-12T10:19:25;3.53;;;2.97;;
44516;SDS011;30223;17.182;-96.766;2023-08-12T10:21:54;4.78;;;3.75;;
44516;SDS011;30223;17.182;-96.766;2023-08-12T10:24:27;4.22;;;3.03;;
44516;SDS011;30223;17.182;-96.766;2023-08-12T10:26:55;3.85;;;3.47;;
44516;SDS011;30223;17.182;-96.766;2023-08-12T10:29:25;3.40;;;2.50;;
44516;SDS011;30223;17.182;-96.766;2023-08-12T10:31:52;4.32;;;3.33;;
44516;SDS011;30223;17.182;-96.766;2023-08-12T10:34:24;3.45;;;3.15;;
44516;SDS011;30223;17.182;-96.766;2023-08-12T10:36:54;3.20;;;2.45;;
44516;SDS011;30223;17.182;-96.766;2023-08-12T10:39:27;8.50;;;2.58;;
44516;SDS011;30223;17.182;-96.766;2023-08-12T10:41:55;2.95;;;2.55;;
44516;SDS011;30223;17.182;-96.766;2023-08-12T10:44:23;4.10;;;2.55;;
44516;SDS011;30223;17.182;-96.766;2023-08-12T10:46:53;4.68;;;3.85;;
44516;SDS011;30223;17.182;-96.766;2023-08-12T10:49:21;3.83;;;3.13;;
44516;SDS011;30223;17.182;-96.766;2023-08-12T10:51:49;3.10;;;2.78;;
44516;SDS011;30223;17.182;-96.766;2023-08-12T10:54:18;4.22;;;3.00;;
44516;SDS011;30223;17.182;-96.766;2023-08-12T11:04:55;4.15;;;2.58;;
44516;SDS011;30223;17.182;-96.766;2023-08-12T11:07:34;3.80;;;3.03;;
44516;SDS011;30223;17.182;-96.766;2023-08-12T11:10:14;3.55;;;2.67;;
44516;SDS011;30223;17.182;-96.766;2023-08-12T11:15:41;3.60;;;2.47;;
44516;SDS011;30223;17.182;-96.766;2023-08-12T11:18:15;2.92;;;2.30;;
44516;SDS011;30223;17.182;-96.766;2023-08-12T11:20:43;4.53;;;2.75;;
44516;SDS011;30223;17.182;-96.766;2023-08-12T11:23:12;3.15;;;2.85;;
44516;SDS011;30223;17.182;-96.766;2023-08-12T11:25:40;3.30;;;2.58;;
44516;SDS011;30223;17.182;-96.766;2023-08-12T11:28:09;3.25;;;2.45;;
44516;SDS011;30223;17.182;-96.766;2023-08-12T11:30:36;4.95;;;2.88;;
44516;SDS011;30223;17.182;-96.766;2023-08-12T11:33:05;4.13;;;3.20;;
44516;SDS011;30223;17.182;-96.766;2023-08-12T11:35:32;4.18;;;2.63;;
44516;SDS011;30223;17.182;-96.766;2023-08-12T11:38:00;3.83;;;3.13;;
44516;SDS011;30223;17.182;-96.766;2023-08-12T11:40:27;2.88;;;2.58;;
44516;SDS011;30223;17.182;-96.766;2023-08-12T11:42:54;3.15;;;2.85;;
44516;SDS011;30223;17.182;-96.766;2023-08-12T11:45:22;3.50;;;2.90;;
44516;SDS011;30223;17.182;-96.766;2023-08-12T11:47:51;4.78;;;3.20;;
44516;SDS011;30223;17.182;-96.766;2023-08-12T11:50:18;5.38;;;2.92;;
44516;SDS011;30223;17.182;-96.766;2023-08-12T11:55:14;2.50;;;2.30;;
44516;SDS011;30223;17.182;-96.766;2023-08-12T11:57:41;2.88;;;2.25;;
44516;SDS011;30223;17.182;-96.766;2023-08-12T12:00:10;3.97;;;2.28;;
44516;SDS011;30223;17.182;-96.766;2023-08-12T12:02:53;4.25;;;3.03;;
44516;SDS011;30223;17.182;-96.766;2023-08-12T12:05:22;3.35;;;2.67;;
44516;SDS011;30223;17.182;-96.766;2023-08-12T12:07:53;2.80;;;2.17;;
44516;SDS011;30223;17.182;-96.766;2023-08-12T12:10:29;4.05;;;3.15;;
44516;SDS011;30223;17.182;-96.766;2023-08-12T12:12:58;2.58;;;2.38;;
44516;SDS011;30223;17.182;-96.766;2023-08-12T12:15:25;3.03;;;2.47;;
44516;SDS011;30223;17.182;-96.766;2023-08-12T12:17:52;2.30;;;2.10;;
44516;SDS011;30223;17.182;-96.766;2023-08-12T12:20:19;3.60;;;2.97;;
44516;SDS011;30223;17.182;-96.766;2023-08-12T12:22:47;2.95;;;2.63;;
44516;SDS011;30223;17.182;-96.766;2023-08-12T12:25:15;3.13;;;2.55;;
44516;SDS011;30223;17.182;-96.766;2023-08-12T12:27:46;4.78;;;3.05;;
44516;SDS011;30223;17.182;-96.766;2023-08-12T12:30:13;2.92;;;2.38;;
44516;SDS011;30223;17.182;-96.766;2023-08-12T12:32:41;3.37;;;2.30;;
44516;SDS011;30223;17.182;-96.766;2023-08-12T12:35:08;2.85;;;2.30;;
44516;SDS011;30223;17.182;-96.766;2023-08-12T12:37:35;3.47;;;2.50;;
44516;SDS011;30223;17.182;-96.766;2023-08-12T12:40:03;3.15;;;2.70;;
44516;SDS011;30223;17.182;-96.766;2023-08-12T12:42:30;3.20;;;2.40;;
44516;SDS011;30223;17.182;-96.766;2023-08-12T12:44:57;2.28;;;2.08;;
44516;SDS011;30223;17.182;-96.766;2023-08-12T12:47:24;2.90;;;2.00;;
44516;SDS011;30223;17.182;-96.766;2023-08-12T12:49:51;3.53;;;2.30;;
44516;SDS011;30223;17.182;-96.766;2023-08-12T12:52:17;3.65;;;2.60;;
44516;SDS011;30223;17.182;-96.766;2023-08-12T12:54:44;3.05;;;2.15;;
44516;SDS011;30223;17.182;-96.766;2023-08-12T12:57:11;3.50;;;2.00;;
44516;SDS011;30223;17.182;-96.766;2023-08-12T12:59:38;3.13;;;2.03;;
44516;SDS011;30223;17.182;-96.766;2023-08-12T13:02:04;3.00;;;2.17;;
44516;SDS011;30223;17.182;-96.766;2023-08-12T13:04:31;4.70;;;2.33;;
44516;SDS011;30223;17.182;-96.766;2023-08-12T13:06:58;4.72;;;2.42;;
44516;SDS011;30223;17.182;-96.766;2023-08-12T13:09:25;3.15;;;2.00;;
44516;SDS011;30223;17.182;-96.766;2023-08-12T13:11:51;2.45;;;1.92;;
44516;SDS011;30223;17.182;-96.766;2023-08-12T13:14:21;3.67;;;2.53;;
44516;SDS011;30223;17.182;-96.766;2023-08-12T13:16:49;3.50;;;2.63;;
44516;SDS011;30223;17.182;-96.766;2023-08-12T13:19:15;3.00;;;2.38;;
44516;SDS011;30223;17.182;-96.766;2023-08-12T13:21:42;2.25;;;2.03;;
44516;SDS011;30223;17.182;-96.766;2023-08-12T13:24:09;2.45;;;1.95;;
44516;SDS011;30223;17.182;-96.766;2023-08-12T13:26:36;4.25;;;2.10;;
44516;SDS011;30223;17.182;-96.766;2023-08-12T13:29:02;2.67;;;1.98;;
44516;SDS011;30223;17.182;-96.766;2023-08-12T13:31:29;3.22;;;2.40;;
44516;SDS011;30223;17.182;-96.766;2023-08-12T13:33:56;4.43;;;3.67;;
44516;SDS011;30223;17.182;-96.766;2023-08-12T13:36:23;4.22;;;2.00;;
44516;SDS011;30223;17.182;-96.766;2023-08-12T13:38:49;4.00;;;2.33;;
44516;SDS011;30223;17.182;-96.766;2023-08-12T13:41:16;2.60;;;1.90;;
44516;SDS011;30223;17.182;-96.766;2023-08-12T13:43:43;3.53;;;2.13;;
44516;SDS011;30223;17.182;-96.766;2023-08-12T13:46:10;4.15;;;2.10;;
44516;SDS011;30223;17.182;-96.766;2023-08-12T13:48:36;2.58;;;2.20;;
44516;SDS011;30223;17.182;-96.766;2023-08-12T13:51:03;2.80;;;2.58;;
44516;SDS011;30223;17.182;-96.766;2023-08-12T13:53:31;2.40;;;1.88;;
44516;SDS011;30223;17.182;-96.766;2023-08-12T13:55:58;3.88;;;1.83;;
44516;SDS011;30223;17.182;-96.766;2023-08-12T13:58:25;2.60;;;2.08;;
44516;SDS011;30223;17.182;-96.766;2023-08-12T14:00:51;4.85;;;2.42;;
44516;SDS011;30223;17.182;-96.766;2023-08-12T14:03:18;2.65;;;2.10;;
44516;SDS011;30223;17.182;-96.766;2023-08-12T14:05:45;2.17;;;1.90;;
44516;SDS011;30223;17.182;-96.766;2023-08-12T14:08:12;4.05;;;2.25;;
44516;SDS011;30223;17.182;-96.766;2023-08-12T14:10:38;4.30;;;2.30;;
44516;SDS011;30223;17.182;-96.766;2023-08-12T14:13:05;2.30;;;2.10;;
44516;SDS011;30223;17.182;-96.766;2023-08-12T14:15:32;1.60;;;1.50;;
44516;SDS011;30223;17.182;-96.766;2023-08-12T14:18:00;3.17;;;2.20;;
44516;SDS011;30223;17.182;-96.766;2023-08-12T14:20:27;2.40;;;2.15;;
44516;SDS011;30223;17.182;-96.766;2023-08-12T14:22:53;4.40;;;2.50;;
44516;SDS011;30223;17.182;-96.766;2023-08-12T14:25:20;2.50;;;1.80;;
44516;SDS011;30223;17.182;-96.766;2023-08-12T14:27:47;3.90;;;1.90;;
44516;SDS011;30223;17.182;-96.766;2023-08-12T14:30:14;3.20;;;2.15;;
44516;SDS011;30223;17.182;-96.766;2023-08-12T14:32:43;2.53;;;2.13;;
44516;SDS011;30223;17.182;-96.766;2023-08-12T14:35:10;3.55;;;2.30;;
44516;SDS011;30223;17.182;-96.766;2023-08-12T14:37:37;2.15;;;1.95;;
44516;SDS011;30223;17.182;-96.766;2023-08-12T14:40:04;3.30;;;2.15;;
44516;SDS011;30223;17.182;-96.766;2023-08-12T14:42:31;2.33;;;2.13;;